Va Bene — ZCIP8 — position and weather

sailwx.info

Track history (hours):
 
Tides and Currents Weather Stations Pressure Air Temp Water Temp Dewpoint Dewpoint Depression Visibility Wind Speed Wind Dir Waves Ship Positions

Va Bene

Last reported at 2016-Aug-27 22:13 UTC. Time now 2016-Aug-30 15:02 UTC.
Position N 43°42' E 007°17'.

Length 50 m; draft 3.6 m.

Type: Pleasure craft. MMSI: 319854000.

Date/timePositionNaut miles runAvg speedWind from/ knotsBaromVisibWave heightAir tempDewpointWater temp
2016-Aug-27 22:13N 43°42' E 007°17'0 0.0
2016-Aug-27 11:24N 43°42' E 007°17'0 0.0
2016-Aug-27 10:31N 43°42' E 007°17'0 0.0
2016-Aug-26 15:30N 43°42' E 007°17'0 0.0
2016-Aug-26 14:30N 43°42' E 007°17'0 0.0
2016-Aug-26 13:13N 43°42' E 007°17'0 0.0
2016-Aug-26 09:25N 43°42' E 007°17'2 1.7
2016-Aug-26 08:33N 43°41' E 007°19'0 0.0
2016-Aug-26 07:33N 43°41' E 007°19'4811.6
2016-Aug-26 03:24N 43°22' E 008°20'1113.2
2016-Aug-26 02:32N 43°18' E 008°34'1413.7
2016-Aug-26 01:33N 43°13' E 008°51'1313.5
2016-Aug-26 00:33N 43°07' E 009°08'1313.2
2016-Aug-25 23:33N 43°02' E 009°25'1313.2
2016-Aug-25 22:33N 42°55' E 009°40'1312.8
2016-Aug-25 21:33N 42°48' E 009°55'1412.8
2016-Aug-25 20:27N 42°40' E 010°10'209 5.7
2016-Aug-24 07:33N 40°39' E 013°58'1212.5
2016-Aug-24 06:33N 40°35' E 014°14'15 0.7
2016-Aug-23 09:33N 40°36' E 014°33'2 0.5
2016-Aug-23 06:28N 40°37' E 014°31'8 9.0
2016-Aug-23 05:33N 40°34' E 014°21'5 4.7
2016-Aug-23 04:33N 40°33' E 014°15'0 0.0
2016-Aug-23 03:33N 40°33' E 014°15'0 0.0
2016-Aug-23 02:27N 40°33' E 014°15'0 0.0
2016-Aug-23 01:33N 40°33' E 014°15'0 0.0
2016-Aug-23 00:33N 40°33' E 014°15'0 0.0
2016-Aug-22 23:33N 40°33' E 014°15'0 0.0
2016-Aug-22 22:33N 40°33' E 014°15'0 0.0
2016-Aug-22 21:33N 40°33' E 014°15'0 0.0
2016-Aug-22 20:21N 40°33' E 014°15'0 0.0
2016-Aug-22 19:33N 40°33' E 014°15'0 0.0
2016-Aug-22 18:33N 40°33' E 014°15'0 0.0
2016-Aug-22 17:34N 40°33' E 014°15'1 0.1
2016-Aug-22 09:05N 40°32' E 014°15'1 2.3
2016-Aug-22 08:27N 40°34' E 014°14'0 0.0
2016-Aug-22 07:33N 40°34' E 014°14'0 0.0
2016-Aug-22 06:09N 40°34' E 014°14'0 0.0
2016-Aug-22 05:33N 40°34' E 014°14'0 0.0
2016-Aug-22 04:33N 40°34' E 014°14'0 0.0
2016-Aug-22 03:27N 40°34' E 014°14'0 0.0
2016-Aug-22 02:33N 40°34' E 014°14'0 0.0
2016-Aug-22 01:33N 40°34' E 014°14'0 0.0
2016-Aug-22 00:33N 40°34' E 014°14'0 0.0
2016-Aug-21 23:33N 40°34' E 014°14'0 0.0
2016-Aug-21 22:33N 40°34' E 014°14'0 0.0
2016-Aug-21 21:33N 40°34' E 014°14'0 0.0
2016-Aug-21 20:33N 40°34' E 014°14'0 0.0
2016-Aug-21 19:33N 40°34' E 014°14'0 0.0
2016-Aug-21 18:33N 40°34' E 014°14'0 0.0
2016-Aug-21 17:27N 40°34' E 014°14'0 0.0
2016-Aug-21 16:21N 40°34' E 014°14'0 0.0
2016-Aug-21 15:33N 40°34' E 014°14'0 0.0
2016-Aug-21 14:33N 40°34' E 014°14'0 0.0
2016-Aug-21 13:33N 40°34' E 014°14'0 0.0
2016-Aug-21 12:21N 40°34' E 014°14'0 0.0
2016-Aug-21 11:27N 40°34' E 014°14'0 0.0
2016-Aug-21 10:15N 40°34' E 014°14'0 0.0
2016-Aug-21 09:33N 40°34' E 014°14'0 0.0
2016-Aug-21 08:27N 40°34' E 014°14'0 0.0
2016-Aug-21 07:21N 40°34' E 014°14'0 0.0
2016-Aug-21 06:09N 40°34' E 014°14'0 0.0
2016-Aug-21 05:27N 40°34' E 014°14'0 0.0
2016-Aug-21 04:27N 40°34' E 014°14'0 0.0
2016-Aug-21 03:27N 40°34' E 014°14'0 0.0
2016-Aug-21 02:33N 40°34' E 014°14'0 0.0
2016-Aug-21 01:27N 40°34' E 014°14'0 0.0
2016-Aug-21 00:33N 40°34' E 014°14'0 0.0
2016-Aug-20 23:33N 40°34' E 014°14'0 0.0
2016-Aug-20 22:27N 40°34' E 014°14'0 0.0
2016-Aug-20 21:27N 40°34' E 014°14'0 0.0
2016-Aug-20 20:27N 40°34' E 014°14'0 0.0
2016-Aug-20 19:33N 40°34' E 014°14'0 0.0
2016-Aug-20 18:21N 40°34' E 014°14'0 0.0
2016-Aug-20 17:33N 40°34' E 014°14'0 0.0
2016-Aug-20 16:33N 40°34' E 014°14'0 0.0
2016-Aug-20 15:33N 40°34' E 014°14'8 8.3
2016-Aug-20 14:33N 40°38' E 014°23'1 0.6
2016-Aug-20 13:33N 40°39' E 014°23'6 4.4
2016-Aug-20 12:17N 40°43' E 014°28'0 0.0
2016-Aug-20 11:29N 40°43' E 014°28'0 0.0
2016-Aug-20 10:17N 40°43' E 014°28'0 0.0
2016-Aug-20 09:29N 40°43' E 014°28'0 0.0
2016-Aug-20 08:29N 40°43' E 014°28'0 0.0
2016-Aug-20 07:23N 40°43' E 014°28'0 0.0
2016-Aug-20 06:23N 40°43' E 014°28'0 0.0
2016-Aug-20 05:29N 40°43' E 014°28'0 0.0
2016-Aug-20 04:29N 40°43' E 014°28'0 0.0
2016-Aug-20 03:29N 40°43' E 014°28'0 0.0
2016-Aug-20 02:29N 40°43' E 014°28'0 0.0
2016-Aug-20 01:29N 40°43' E 014°28'0 0.0
2016-Aug-20 00:29N 40°43' E 014°28'0 0.0
2016-Aug-19 23:29N 40°43' E 014°28'0 0.0
2016-Aug-19 22:29N 40°43' E 014°28'0 0.0
2016-Aug-19 21:29N 40°43' E 014°28'0 0.0
2016-Aug-19 20:29N 40°43' E 014°28'0 0.0
2016-Aug-19 19:29N 40°43' E 014°28'0 0.0
2016-Aug-19 18:29N 40°43' E 014°28'0 0.0
2016-Aug-19 17:29N 40°43' E 014°28'0 0.0
2016-Aug-19 16:29N 40°43' E 014°28'0 0.0
2016-Aug-19 15:23N 40°43' E 014°28'0 0.0
2016-Aug-19 14:29N 40°43' E 014°28'0 0.0
2016-Aug-19 13:17N 40°43' E 014°28'0 0.0
2016-Aug-19 12:29N 40°43' E 014°28'0 0.0
2016-Aug-19 11:11N 40°43' E 014°28'0 0.0
2016-Aug-19 10:29N 40°43' E 014°28'0 0.0
2016-Aug-19 09:17N 40°43' E 014°28'0 0.0
2016-Aug-19 08:29N 40°43' E 014°28'0 0.0
2016-Aug-19 07:29N 40°43' E 014°28'0 0.0
2016-Aug-19 06:23N 40°43' E 014°28'0 0.0
2016-Aug-19 05:29N 40°43' E 014°28'0 0.0
2016-Aug-19 04:29N 40°43' E 014°28'0 0.0
2016-Aug-19 03:29N 40°43' E 014°28'0 0.0
2016-Aug-19 02:29N 40°43' E 014°28'0 0.0
2016-Aug-19 01:29N 40°43' E 014°28'0 0.0
2016-Aug-19 00:29N 40°43' E 014°28'0 0.0
2016-Aug-18 23:29N 40°43' E 014°28'0 0.0
2016-Aug-18 22:29N 40°43' E 014°28'0 0.0
2016-Aug-18 21:29N 40°43' E 014°28'0 0.0
2016-Aug-18 20:29N 40°43' E 014°28'0 0.0
2016-Aug-18 19:23N 40°43' E 014°28'0 0.0
2016-Aug-18 18:29N 40°43' E 014°28'0 0.0
2016-Aug-18 17:20N 40°43' E 014°28'6 7.2
2016-Aug-18 16:33N 40°40' E 014°23'11612.8
2016-Aug-18 07:31N 38°53' E 015°22'1313.4
2016-Aug-18 06:33N 38°41' E 015°28'1413.7
2016-Aug-18 05:33N 38°29' E 015°36'1313.1
2016-Aug-18 04:33N 38°17' E 015°42'1212.5
2016-Aug-18 03:33N 38°05' E 015°36'9 9.2
2016-Aug-18 02:33N 37°56' E 015°38'1010.4
2016-Aug-18 01:33N 37°51' E 015°49'3912.3
2016-Aug-17 22:22N 38°09' E 016°34'  
Track history (hours):
 
Tides and Currents Weather Stations Pressure Air Temp Water Temp Dewpoint Dewpoint Depression Visibility Wind Speed Wind Dir Waves Ship Positions

Va Bene

Last reported at 2016-Aug-27 22:13 UTC. Time now 2016-Aug-30 15:02 UTC.
Position N 43°42' E 007°17'.

Length 50 m; draft 3.6 m.

Type: Pleasure craft. MMSI: 319854000.

Date/timePositionNaut miles runAvg speedWind from/ knotsBaromVisibWave heightAir tempDewpointWater temp
2016-Aug-27 22:13N 43°42' E 007°17'0 0.0
2016-Aug-27 11:24N 43°42' E 007°17'0 0.0
2016-Aug-27 10:31N 43°42' E 007°17'0 0.0
2016-Aug-26 15:30N 43°42' E 007°17'0 0.0
2016-Aug-26 14:30N 43°42' E 007°17'0 0.0
2016-Aug-26 13:13N 43°42' E 007°17'0 0.0
2016-Aug-26 09:25N 43°42' E 007°17'2 1.7
2016-Aug-26 08:33N 43°41' E 007°19'0 0.0
2016-Aug-26 07:33N 43°41' E 007°19'4811.6
2016-Aug-26 03:24N 43°22' E 008°20'1113.2
2016-Aug-26 02:32N 43°18' E 008°34'1413.7
2016-Aug-26 01:33N 43°13' E 008°51'1313.5
2016-Aug-26 00:33N 43°07' E 009°08'1313.2
2016-Aug-25 23:33N 43°02' E 009°25'1313.2
2016-Aug-25 22:33N 42°55' E 009°40'1312.8
2016-Aug-25 21:33N 42°48' E 009°55'1412.8
2016-Aug-25 20:27N 42°40' E 010°10'209 5.7
2016-Aug-24 07:33N 40°39' E 013°58'1212.5
2016-Aug-24 06:33N 40°35' E 014°14'15 0.7
2016-Aug-23 09:33N 40°36' E 014°33'2 0.5
2016-Aug-23 06:28N 40°37' E 014°31'8 9.0
2016-Aug-23 05:33N 40°34' E 014°21'5 4.7
2016-Aug-23 04:33N 40°33' E 014°15'0 0.0
2016-Aug-23 03:33N 40°33' E 014°15'0 0.0
2016-Aug-23 02:27N 40°33' E 014°15'0 0.0
2016-Aug-23 01:33N 40°33' E 014°15'0 0.0
2016-Aug-23 00:33N 40°33' E 014°15'0 0.0
2016-Aug-22 23:33N 40°33' E 014°15'0 0.0
2016-Aug-22 22:33N 40°33' E 014°15'0 0.0
2016-Aug-22 21:33N 40°33' E 014°15'0 0.0
2016-Aug-22 20:21N 40°33' E 014°15'0 0.0
2016-Aug-22 19:33N 40°33' E 014°15'0 0.0
2016-Aug-22 18:33N 40°33' E 014°15'0 0.0
2016-Aug-22 17:34N 40°33' E 014°15'1 0.1
2016-Aug-22 09:05N 40°32' E 014°15'1 2.3
2016-Aug-22 08:27N 40°34' E 014°14'0 0.0
2016-Aug-22 07:33N 40°34' E 014°14'0 0.0
2016-Aug-22 06:09N 40°34' E 014°14'0 0.0
2016-Aug-22 05:33N 40°34' E 014°14'0 0.0
2016-Aug-22 04:33N 40°34' E 014°14'0 0.0
2016-Aug-22 03:27N 40°34' E 014°14'0 0.0
2016-Aug-22 02:33N 40°34' E 014°14'0 0.0
2016-Aug-22 01:33N 40°34' E 014°14'0 0.0
2016-Aug-22 00:33N 40°34' E 014°14'0 0.0
2016-Aug-21 23:33N 40°34' E 014°14'0 0.0
2016-Aug-21 22:33N 40°34' E 014°14'0 0.0
2016-Aug-21 21:33N 40°34' E 014°14'0 0.0
2016-Aug-21 20:33N 40°34' E 014°14'0 0.0
2016-Aug-21 19:33N 40°34' E 014°14'0 0.0
2016-Aug-21 18:33N 40°34' E 014°14'0 0.0
2016-Aug-21 17:27N 40°34' E 014°14'0 0.0
2016-Aug-21 16:21N 40°34' E 014°14'0 0.0
2016-Aug-21 15:33N 40°34' E 014°14'0 0.0
2016-Aug-21 14:33N 40°34' E 014°14'0 0.0
2016-Aug-21 13:33N 40°34' E 014°14'0 0.0
2016-Aug-21 12:21N 40°34' E 014°14'0 0.0
2016-Aug-21 11:27N 40°34' E 014°14'0 0.0
2016-Aug-21 10:15N 40°34' E 014°14'0 0.0
2016-Aug-21 09:33N 40°34' E 014°14'0 0.0
2016-Aug-21 08:27N 40°34' E 014°14'0 0.0
2016-Aug-21 07:21N 40°34' E 014°14'0 0.0
2016-Aug-21 06:09N 40°34' E 014°14'0 0.0
2016-Aug-21 05:27N 40°34' E 014°14'0 0.0
2016-Aug-21 04:27N 40°34' E 014°14'0 0.0
2016-Aug-21 03:27N 40°34' E 014°14'0 0.0
2016-Aug-21 02:33N 40°34' E 014°14'0 0.0
2016-Aug-21 01:27N 40°34' E 014°14'0 0.0
2016-Aug-21 00:33N 40°34' E 014°14'0 0.0
2016-Aug-20 23:33N 40°34' E 014°14'0 0.0
2016-Aug-20 22:27N 40°34' E 014°14'0 0.0
2016-Aug-20 21:27N 40°34' E 014°14'0 0.0
2016-Aug-20 20:27N 40°34' E 014°14'0 0.0
2016-Aug-20 19:33N 40°34' E 014°14'0 0.0
2016-Aug-20 18:21N 40°34' E 014°14'0 0.0
2016-Aug-20 17:33N 40°34' E 014°14'0 0.0
2016-Aug-20 16:33N 40°34' E 014°14'0 0.0
2016-Aug-20 15:33N 40°34' E 014°14'8 8.3
2016-Aug-20 14:33N 40°38' E 014°23'1 0.6
2016-Aug-20 13:33N 40°39' E 014°23'6 4.4
2016-Aug-20 12:17N 40°43' E 014°28'0 0.0
2016-Aug-20 11:29N 40°43' E 014°28'0 0.0
2016-Aug-20 10:17N 40°43' E 014°28'0 0.0
2016-Aug-20 09:29N 40°43' E 014°28'0 0.0
2016-Aug-20 08:29N 40°43' E 014°28'0 0.0
2016-Aug-20 07:23N 40°43' E 014°28'0 0.0
2016-Aug-20 06:23N 40°43' E 014°28'0 0.0
2016-Aug-20 05:29N 40°43' E 014°28'0 0.0
2016-Aug-20 04:29N 40°43' E 014°28'0 0.0
2016-Aug-20 03:29N 40°43' E 014°28'0 0.0
2016-Aug-20 02:29N 40°43' E 014°28'0 0.0
2016-Aug-20 01:29N 40°43' E 014°28'0 0.0
2016-Aug-20 00:29N 40°43' E 014°28'0 0.0
2016-Aug-19 23:29N 40°43' E 014°28'0 0.0
2016-Aug-19 22:29N 40°43' E 014°28'0 0.0
2016-Aug-19 21:29N 40°43' E 014°28'0 0.0
2016-Aug-19 20:29N 40°43' E 014°28'0 0.0
2016-Aug-19 19:29N 40°43' E 014°28'0 0.0
2016-Aug-19 18:29N 40°43' E 014°28'0 0.0
2016-Aug-19 17:29N 40°43' E 014°28'0 0.0
2016-Aug-19 16:29N 40°43' E 014°28'0 0.0
2016-Aug-19 15:23N 40°43' E 014°28'0 0.0
2016-Aug-19 14:29N 40°43' E 014°28'0 0.0
2016-Aug-19 13:17N 40°43' E 014°28'0 0.0
2016-Aug-19 12:29N 40°43' E 014°28'0 0.0
2016-Aug-19 11:11N 40°43' E 014°28'0 0.0
2016-Aug-19 10:29N 40°43' E 014°28'0 0.0
2016-Aug-19 09:17N 40°43' E 014°28'0 0.0
2016-Aug-19 08:29N 40°43' E 014°28'0 0.0
2016-Aug-19 07:29N 40°43' E 014°28'0 0.0
2016-Aug-19 06:23N 40°43' E 014°28'0 0.0
2016-Aug-19 05:29N 40°43' E 014°28'0 0.0
2016-Aug-19 04:29N 40°43' E 014°28'0 0.0
2016-Aug-19 03:29N 40°43' E 014°28'0 0.0
2016-Aug-19 02:29N 40°43' E 014°28'0 0.0
2016-Aug-19 01:29N 40°43' E 014°28'0 0.0
2016-Aug-19 00:29N 40°43' E 014°28'0 0.0
2016-Aug-18 23:29N 40°43' E 014°28'0 0.0
2016-Aug-18 22:29N 40°43' E 014°28'0 0.0
2016-Aug-18 21:29N 40°43' E 014°28'0 0.0
2016-Aug-18 20:29N 40°43' E 014°28'0 0.0
2016-Aug-18 19:23N 40°43' E 014°28'0 0.0
2016-Aug-18 18:29N 40°43' E 014°28'0 0.0
2016-Aug-18 17:20N 40°43' E 014°28'6 7.2
2016-Aug-18 16:33N 40°40' E 014°23'11612.8
2016-Aug-18 07:31N 38°53' E 015°22'1313.4
2016-Aug-18 06:33N 38°41' E 015°28'1413.7
2016-Aug-18 05:33N 38°29' E 015°36'1313.1
2016-Aug-18 04:33N 38°17' E 015°42'1212.5
2016-Aug-18 03:33N 38°05' E 015°36'9 9.2
2016-Aug-18 02:33N 37°56' E 015°38'1010.4
2016-Aug-18 01:33N 37°51' E 015°49'3912.3
2016-Aug-17 22:22N 38°09' E 016°34'  

Dump ship's entire track history